Time;durP1;ratioP1;P1;durP2;ratioP2;P2;SDS_P1;SDS_P2;PMS_P1;PMS_P2;Temp;Humidity;BMP_temperature;BMP_pressure;BME280_temperature;BME280_humidity;BME280_pressure;Samples;Min_cycle;Max_cycle;Signal;HPM_P1;HPM_P2
2022/06/15 00:01:20;;;;;;;2.30;2.20;;;21.10;45.70;;;;;;4981657;28;20526;-59
2022/06/15 00:03:46;;;;;;;2.80;2.60;;;21.10;45.70;;;;;;4986622;28;20481;-59
2022/06/15 00:06:15;;;;;;;2.67;2.57;;;21.10;45.70;;;;;;4984127;28;20960;-59
2022/06/15 00:08:42;;;;;;;2.63;2.53;;;21.10;46.40;;;;;;4984868;28;20219;-59
2022/06/15 00:11:15;;;;;;;2.30;2.20;;;21.10;45.70;;;;;;4985525;28;20966;-59
2022/06/15 00:13:43;;;;;;;2.30;2.20;;;21.10;45.70;;;;;;4980058;28;20999;-56
2022/06/15 00:16:08;;;;;;;3.80;3.10;;;21.10;45.70;;;;;;4985478;28;20467;-57
2022/06/15 00:18:35;;;;;;;2.60;2.50;;;21.10;45.70;;;;;;4999894;28;20450;-56
2022/06/15 00:21:02;;;;;;;2.70;2.23;;;21.10;45.70;;;;;;4984157;28;20220;-56
2022/06/15 00:23:30;;;;;;;3.10;2.90;;;21.10;45.70;;;;;;4976469;28;20497;-57
2022/06/15 00:25:56;;;;;;;2.70;2.60;;;21.10;45.70;;;;;;4986536;28;20497;-56
2022/06/15 00:28:22;;;;;;;2.53;2.43;;;21.10;45.70;;;;;;4981279;28;20470;-56
2022/06/15 00:30:51;;;;;;;3.60;2.60;;;21.10;45.70;;;;;;4984933;28;20459;-56
2022/06/15 00:33:21;;;;;;;2.60;2.50;;;21.10;45.70;;;;;;4980532;28;20967;-56
2022/06/15 00:35:57;;;;;;;2.10;2.00;;;21.10;45.70;;;;;;4982599;28;20474;-56
2022/06/15 00:38:24;;;;;;;2.63;2.43;;;21.10;45.70;;;;;;4976120;28;20467;-56
2022/06/15 00:40:50;;;;;;;2.10;2.00;;;21.10;45.70;;;;;;4997119;28;20465;-56
2022/06/15 00:43:28;;;;;;;2.43;2.33;;;21.10;45.70;;;;;;4982058;28;20429;-56
2022/06/15 00:45:54;;;;;;;2.30;2.20;;;21.10;45.70;;;;;;4982670;28;20757;-56
2022/06/15 00:48:20;;;;;;;2.27;2.17;;;21.10;45.70;;;;;;4982243;28;20459;-56
2022/06/15 00:50:45;;;;;;;1.93;1.77;;;21.10;45.70;;;;;;4983036;28;20275;-56
2022/06/15 00:53:11;;;;;;;2.10;2.00;;;21.10;45.70;;;;;;4982125;28;20247;-56
2022/06/15 00:55:37;;;;;;;2.30;2.10;;;21.10;45.70;;;;;;4979478;28;20243;-56
2022/06/15 00:58:08;;;;;;;2.50;2.40;;;21.10;45.70;;;;;;4983630;28;20819;-56
2022/06/15 01:00:34;;;;;;;2.30;2.20;;;21.10;46.40;;;;;;4995312;28;20626;-56
2022/06/15 01:03:00;;;;;;;2.40;2.30;;;21.10;45.70;;;;;;4978436;28;20502;-56
2022/06/15 01:05:37;;;;;;;1.97;1.87;;;21.10;45.60;;;;;;4979290;28;20451;-56
2022/06/15 01:08:21;;;;;;;2.37;2.17;;;21.00;45.60;;;;;;4981081;28;20229;-56
2022/06/15 01:10:59;;;;;;;1.93;1.73;;;21.00;45.60;;;;;;4979720;28;20437;-56
2022/06/15 01:13:45;;;;;;;1.90;1.80;;;21.00;45.60;;;;;;4979424;28;20485;-56
2022/06/15 01:16:30;;;;;;;2.43;2.30;;;21.00;45.60;;;;;;4980812;28;20494;-56
2022/06/15 01:19:12;;;;;;;2.20;2.10;;;21.00;45.60;;;;;;4984631;28;20455;-56
2022/06/15 01:21:48;;;;;;;2.20;2.10;;;21.00;45.60;;;;;;4981862;28;20488;-59
2022/06/15 01:24:48;;;;;;;3.00;2.80;;;21.00;45.60;;;;;;4988433;28;20549;-59
2022/06/15 01:27:27;;;;;;;2.53;2.10;;;21.00;45.60;;;;;;4980000;28;20467;-59
2022/06/15 01:29:59;;;;;;;2.10;1.90;;;21.00;45.60;;;;;;4980863;28;20537;-59
2022/06/15 01:32:30;;;;;;;1.80;1.70;;;21.00;45.60;;;;;;4986283;28;20955;-58
2022/06/15 01:35:25;;;;;;;1.90;1.80;;;21.00;45.60;;;;;;4982087;28;20463;-59
2022/06/15 01:38:22;;;;;;;1.90;1.80;;;21.00;45.70;;;;;;4987286;28;20828;-58
2022/06/15 01:41:13;;;;;;;1.90;1.80;;;21.00;45.60;;;;;;4976287;28;20455;-58
2022/06/15 01:43:46;;;;;;;2.00;1.90;;;21.00;45.60;;;;;;4976577;28;20454;-58
2022/06/15 01:46:12;;;;;;;2.40;2.20;;;21.00;45.50;;;;;;4985777;28;20537;-59
2022/06/15 01:48:41;;;;;;;2.10;2.00;;;21.00;45.60;;;;;;4983143;28;20511;-59
2022/06/15 01:51:13;;;;;;;2.73;2.53;;;21.00;45.60;;;;;;4986750;28;20229;-59
2022/06/15 01:53:46;;;;;;;2.13;1.93;;;21.00;45.60;;;;;;4982255;28;20461;-59
2022/06/15 01:56:27;;;;;;;1.93;1.80;;;21.00;45.60;;;;;;4979909;28;20471;-59
2022/06/15 01:58:59;;;;;;;2.20;2.03;;;21.00;45.60;;;;;;4987594;28;20455;-59
2022/06/15 02:01:42;;;;;;;1.83;1.73;;;21.00;45.60;;;;;;4980166;28;20481;-59
2022/06/15 02:04:18;;;;;;;1.83;1.73;;;21.00;45.60;;;;;;4984152;28;20512;-58
2022/06/15 02:06:55;;;;;;;2.30;2.20;;;21.00;45.60;;;;;;4981065;28;20921;-59
2022/06/15 02:09:44;;;;;;;2.20;2.10;;;21.00;45.60;;;;;;4980139;28;20463;-58
2022/06/15 02:12:12;;;;;;;2.20;2.10;;;21.00;46.30;;;;;;4996938;28;20455;-60
2022/06/15 02:14:59;;;;;;;1.97;1.87;;;21.00;45.60;;;;;;4981407;28;21259;-59
2022/06/15 02:17:35;;;;;;;1.83;1.73;;;21.00;45.60;;;;;;4994203;28;20464;-59
2022/06/15 02:20:14;;;;;;;2.10;2.00;;;21.00;45.60;;;;;;4987808;28;21267;-59
2022/06/15 02:22:40;;;;;;;1.70;1.60;;;21.00;45.60;;;;;;4980627;28;20835;-58
2022/06/15 02:25:13;;;;;;;2.17;2.07;;;21.00;45.50;;;;;;4978720;28;20449;-59
2022/06/15 02:27:41;;;;;;;1.80;1.70;;;21.00;45.50;;;;;;4996911;28;20504;-59
2022/06/15 02:30:22;;;;;;;1.97;1.87;;;21.00;45.60;;;;;;4978880;28;20461;-59
2022/06/15 02:32:49;;;;;;;2.47;2.30;;;21.00;45.40;;;;;;4978261;28;20453;-59
2022/06/15 02:35:20;;;;;;;2.00;1.90;;;21.00;45.50;;;;;;4981427;28;20482;-58
2022/06/15 02:37:47;;;;;;;2.10;2.00;;;21.00;45.40;;;;;;4978737;28;21188;-59
2022/06/15 02:40:15;;;;;;;2.00;1.90;;;21.00;46.10;;;;;;4982605;28;20462;-59
2022/06/15 02:42:41;;;;;;;2.03;1.93;;;21.00;45.30;;;;;;4976914;28;20441;-59
2022/06/15 02:45:12;;;;;;;2.03;1.90;;;21.00;45.20;;;;;;4978875;28;20761;-59
2022/06/15 02:47:41;;;;;;;1.90;1.80;;;21.00;45.20;;;;;;4979362;28;20759;-59
2022/06/15 02:50:08;;;;;;;2.70;2.00;;;21.00;45.30;;;;;;4983761;28;20475;-59
2022/06/15 02:52:43;;;;;;;2.10;2.00;;;21.00;45.20;;;;;;4981766;28;20938;-59
2022/06/15 02:55:10;;;;;;;2.20;2.00;;;21.00;45.20;;;;;;4976679;28;20449;-59
2022/06/15 02:57:49;;;;;;;2.07;1.97;;;21.00;45.20;;;;;;4978310;28;20454;-58
2022/06/15 03:00:16;;;;;;;2.90;2.07;;;21.00;45.20;;;;;;4982136;28;20910;-59
2022/06/15 03:02:42;;;;;;;2.20;2.10;;;21.00;45.10;;;;;;4997318;28;20982;-59
2022/06/15 03:05:08;;;;;;;2.20;2.10;;;21.00;45.10;;;;;;4987951;28;20470;-58
2022/06/15 03:07:34;;;;;;;2.10;2.00;;;21.00;45.00;;;;;;4986443;28;20525;-59
2022/06/15 03:09:59;;;;;;;2.00;1.90;;;21.00;45.00;;;;;;4981160;28;20586;-59
2022/06/15 03:12:25;;;;;;;2.00;1.90;;;21.00;45.00;;;;;;4986913;28;20233;-58
2022/06/15 03:14:50;;;;;;;2.10;2.00;;;21.00;45.00;;;;;;4986439;28;20335;-58
2022/06/15 03:17:16;;;;;;;2.00;1.90;;;21.00;45.00;;;;;;4985710;28;20380;-58
2022/06/15 03:19:43;;;;;;;4.03;2.20;;;21.00;45.70;;;;;;4984823;28;20229;-58
2022/06/15 03:22:08;;;;;;;2.00;1.90;;;21.00;45.00;;;;;;4983930;28;20232;-59
2022/06/15 03:24:34;;;;;;;2.50;2.30;;;21.00;44.90;;;;;;4986980;28;20452;-59
2022/06/15 03:27:00;;;;;;;2.33;2.23;;;21.00;44.90;;;;;;4987909;28;20303;-59
2022/06/15 03:29:25;;;;;;;2.30;2.10;;;21.00;44.90;;;;;;4982929;28;20258;-58
2022/06/15 03:31:51;;;;;;;2.10;2.00;;;21.00;44.90;;;;;;4983188;28;20576;-59
2022/06/15 03:34:16;;;;;;;2.10;2.00;;;21.00;44.90;;;;;;4985474;28;20299;-59
2022/06/15 03:36:42;;;;;;;2.93;2.10;;;21.00;44.80;;;;;;4984179;28;20243;-59
2022/06/15 03:39:08;;;;;;;2.10;2.00;;;21.00;44.80;;;;;;5000114;28;20240;-59
2022/06/15 03:41:33;;;;;;;2.40;2.30;;;21.00;44.70;;;;;;4984978;28;20256;-59
2022/06/15 03:43:59;;;;;;;2.30;2.17;;;21.00;44.80;;;;;;4983010;28;20225;-60
2022/06/15 03:46:25;;;;;;;2.40;2.30;;;21.00;44.80;;;;;;4999197;28;20220;-58
2022/06/15 03:48:50;;;;;;;2.00;1.90;;;21.00;44.80;;;;;;4982411;28;20220;-58
2022/06/15 03:51:16;;;;;;;2.07;1.97;;;21.00;44.70;;;;;;4984319;28;20236;-58
2022/06/15 03:53:41;;;;;;;2.07;1.97;;;21.00;44.70;;;;;;4983217;28;20689;-59
2022/06/15 03:56:08;;;;;;;2.00;1.90;;;20.90;44.60;;;;;;4982434;28;20320;-59
2022/06/15 03:58:33;;;;;;;2.30;2.20;;;21.00;44.70;;;;;;4983204;28;20216;-58
2022/06/15 04:00:59;;;;;;;2.13;2.03;;;20.90;44.60;;;;;;4982927;28;20482;-59
2022/06/15 04:03:26;;;;;;;3.30;2.37;;;21.00;44.70;;;;;;4985350;28;20225;-59
2022/06/15 04:05:54;;;;;;;2.17;2.07;;;20.90;44.60;;;;;;4984232;28;20288;-58
2022/06/15 04:08:35;;;;;;;2.10;2.00;;;21.00;44.60;;;;;;4983143;28;20516;-59
2022/06/15 04:14:05;;;;;;;2.60;2.40;;;21.00;44.50;;;;;;4982426;28;20516;-59
2022/06/15 04:16:32;;;;;;;2.10;2.00;;;21.00;44.50;;;;;;4984748;28;20543;-61
2022/06/15 04:19:02;;;;;;;2.20;2.10;;;21.00;44.40;;;;;;4981939;28;20647;-60
2022/06/15 04:21:31;;;;;;;2.40;2.30;;;21.00;44.30;;;;;;4980367;28;20455;-60
2022/06/15 04:23:56;;;;;;;2.30;2.20;;;21.10;44.40;;;;;;4983003;28;20471;-59
2022/06/15 04:26:22;;;;;;;2.20;2.10;;;21.10;44.40;;;;;;4987996;28;20477;-59
2022/06/15 04:28:48;;;;;;;2.40;2.30;;;21.10;44.30;;;;;;4981918;28;20225;-59
2022/06/15 04:31:14;;;;;;;2.40;2.30;;;21.10;44.30;;;;;;4986450;28;20312;-60
2022/06/15 04:33:40;;;;;;;2.10;2.00;;;21.10;44.40;;;;;;4986080;28;20900;-59
2022/06/15 04:36:06;;;;;;;2.83;2.37;;;21.10;44.30;;;;;;4983431;28;20267;-60
2022/06/15 04:38:32;;;;;;;2.63;2.30;;;21.10;44.30;;;;;;4980361;28;20709;-60
2022/06/15 04:40:57;;;;;;;2.33;2.23;;;21.10;44.30;;;;;;4985399;28;20425;-60
2022/06/15 04:43:23;;;;;;;2.37;2.20;;;21.10;44.30;;;;;;4982114;28;20231;-59
2022/06/15 04:45:48;;;;;;;2.43;2.23;;;21.10;44.30;;;;;;4989628;28;20225;-59
2022/06/15 04:48:14;;;;;;;2.37;2.20;;;21.10;44.30;;;;;;4982888;28;20720;-59
2022/06/15 04:50:40;;;;;;;2.20;2.10;;;21.10;44.20;;;;;;4980139;28;20237;-59
2022/06/15 04:53:06;;;;;;;2.50;2.10;;;21.10;44.20;;;;;;4981571;28;20229;-59
2022/06/15 04:55:33;;;;;;;2.30;2.20;;;21.10;44.20;;;;;;4985042;28;20290;-59
2022/06/15 04:58:00;;;;;;;2.00;1.90;;;21.10;44.20;;;;;;4983076;28;20883;-59
2022/06/15 05:00:31;;;;;;;2.23;2.00;;;21.10;44.20;;;;;;4983353;28;20537;-58
2022/06/15 05:02:57;;;;;;;2.40;2.30;;;21.10;44.10;;;;;;4979585;28;20474;-60
2022/06/15 05:05:23;;;;;;;2.80;2.70;;;21.10;44.90;;;;;;4983520;28;20457;-59
2022/06/15 05:07:49;;;;;;;2.43;2.23;;;21.10;44.10;;;;;;4981424;28;20299;-60
2022/06/15 05:10:18;;;;;;;2.40;2.30;;;21.10;44.10;;;;;;4982385;28;20562;-60
2022/06/15 05:12:45;;;;;;;2.10;2.00;;;21.10;44.00;;;;;;4984602;28;20220;-60
2022/06/15 05:15:13;;;;;;;2.57;2.20;;;21.10;44.00;;;;;;4985125;28;20466;-62
2022/06/15 05:17:40;;;;;;;2.40;2.30;;;21.10;44.00;;;;;;4980201;28;20461;-61
2022/06/15 05:20:07;;;;;;;2.23;1.97;;;21.20;44.10;;;;;;4981409;28;20691;-61
2022/06/15 05:22:33;;;;;;;2.27;2.17;;;21.10;44.10;;;;;;4978894;28;20451;-60
2022/06/15 05:24:58;;;;;;;2.50;2.30;;;21.10;44.00;;;;;;4978418;28;20451;-60
2022/06/15 05:27:24;;;;;;;2.77;2.50;;;21.20;44.10;;;;;;4982941;28;20243;-60
2022/06/15 05:29:50;;;;;;;2.90;2.70;;;21.20;43.80;;;;;;4982680;28;20682;-60
2022/06/15 05:32:16;;;;;;;2.90;2.70;;;21.20;43.50;;;;;;4979921;28;20216;-60
2022/06/15 05:34:41;;;;;;;1.93;1.83;;;21.20;43.50;;;;;;4978062;28;20292;-60
2022/06/15 05:37:07;;;;;;;2.17;2.07;;;21.20;43.40;;;;;;4981284;28;20546;-60
2022/06/15 05:39:33;;;;;;;2.30;2.20;;;21.20;43.50;;;;;;4976816;28;20224;-60
2022/06/15 05:41:59;;;;;;;2.30;2.10;;;21.20;43.50;;;;;;4980571;28;20243;-60
2022/06/15 05:44:31;;;;;;;2.20;2.10;;;21.20;43.50;;;;;;4981532;28;20220;-60
2022/06/15 05:46:58;;;;;;;2.10;2.00;;;21.20;43.60;;;;;;4981605;28;20278;-60
2022/06/15 05:49:24;;;;;;;2.57;2.37;;;21.20;43.70;;;;;;4982679;28;20920;-59
2022/06/15 05:51:50;;;;;;;2.40;2.20;;;21.20;43.70;;;;;;4988502;28;20534;-60
2022/06/15 05:54:16;;;;;;;2.60;2.50;;;21.20;43.70;;;;;;4984601;28;20302;-60
2022/06/15 05:56:41;;;;;;;2.87;2.40;;;21.20;43.80;;;;;;4979986;28;20720;-60
2022/06/15 05:59:07;;;;;;;2.13;2.03;;;21.20;43.80;;;;;;4978913;28;20236;-60
2022/06/15 06:01:35;;;;;;;2.80;2.00;;;21.20;43.80;;;;;;4981212;28;20228;-60
2022/06/15 06:04:01;;;;;;;2.33;2.23;;;21.20;44.00;;;;;;4982145;28;20312;-60
2022/06/15 06:06:28;;;;;;;1.97;1.87;;;21.20;44.00;;;;;;4982109;28;20455;-60
2022/06/15 06:08:53;;;;;;;2.50;2.40;;;21.20;44.00;;;;;;4985171;28;20930;-60
2022/06/15 06:11:20;;;;;;;2.20;2.10;;;21.20;44.00;;;;;;4972190;28;20534;-59
2022/06/15 06:13:46;;;;;;;2.27;2.17;;;21.20;44.00;;;;;;4983354;28;20220;-58
2022/06/15 06:16:12;;;;;;;2.17;2.07;;;21.20;44.10;;;;;;4980538;28;20592;-58
2022/06/15 06:18:37;;;;;;;3.00;2.80;;;21.20;44.10;;;;;;4980837;28;20545;-58
2022/06/15 06:21:05;;;;;;;2.07;1.97;;;21.20;44.10;;;;;;4982972;28;20228;-58
2022/06/15 06:23:31;;;;;;;2.77;2.60;;;21.20;44.10;;;;;;4979629;28;20233;-58
2022/06/15 06:25:57;;;;;;;2.30;2.20;;;21.20;44.10;;;;;;4980946;28;20463;-58
2022/06/15 06:28:35;;;;;;;3.10;2.23;;;21.20;44.10;;;;;;4980239;28;21026;-58
2022/06/15 06:31:03;;;;;;;2.20;2.10;;;21.20;44.20;;;;;;4979832;28;20290;-58
2022/06/15 06:33:31;;;;;;;2.73;2.43;;;21.20;44.20;;;;;;4979282;28;20501;-58
2022/06/15 06:35:59;;;;;;;2.30;2.20;;;21.20;44.20;;;;;;4979942;28;20470;-57
2022/06/15 06:38:26;;;;;;;3.47;2.40;;;21.20;44.20;;;;;;4980612;28;20470;-58
2022/06/15 06:40:54;;;;;;;2.17;2.07;;;21.20;44.20;;;;;;4979981;28;20777;-57
2022/06/15 06:43:21;;;;;;;2.20;2.10;;;21.20;44.20;;;;;;4986280;28;20228;-58
2022/06/15 06:45:47;;;;;;;2.37;2.17;;;21.20;44.30;;;;;;4986034;28;20525;-58
2022/06/15 06:48:12;;;;;;;2.20;2.10;;;21.20;44.30;;;;;;4987035;28;20533;-58
2022/06/15 06:50:40;;;;;;;2.50;2.40;;;21.20;44.30;;;;;;4986738;28;20248;-58
2022/06/15 06:53:07;;;;;;;1.97;1.87;;;21.20;44.30;;;;;;4987299;28;20224;-58
2022/06/15 06:55:33;;;;;;;2.10;2.00;;;21.20;44.40;;;;;;4988357;28;20870;-58
2022/06/15 06:58:00;;;;;;;2.20;2.10;;;21.20;44.40;;;;;;4988529;28;20421;-58
2022/06/15 07:00:28;;;;;;;2.70;2.50;;;21.20;44.40;;;;;;4984985;28;20229;-58
2022/06/15 07:02:54;;;;;;;2.13;2.03;;;21.20;44.40;;;;;;4982166;28;20447;-57
2022/06/15 07:05:20;;;;;;;2.20;2.10;;;21.20;44.40;;;;;;4984027;28;20912;-58
2022/06/15 07:07:46;;;;;;;2.47;2.37;;;21.20;44.40;;;;;;4985450;28;20672;-58
2022/06/15 07:10:12;;;;;;;3.17;2.00;;;21.20;44.50;;;;;;4991969;28;20283;-58
2022/06/15 07:12:42;;;;;;;2.13;2.03;;;21.20;44.50;;;;;;4985605;28;20701;-58
2022/06/15 07:15:08;;;;;;;2.37;2.27;;;21.20;44.50;;;;;;4989414;28;20464;-58
2022/06/15 07:17:34;;;;;;;2.30;2.20;;;21.20;44.50;;;;;;4984372;28;20446;-58
2022/06/15 07:20:00;;;;;;;2.80;2.70;;;21.20;44.50;;;;;;4987948;28;20881;-58
2022/06/15 07:22:25;;;;;;;2.33;2.23;;;21.20;44.50;;;;;;4986573;28;20244;-58
2022/06/15 07:24:51;;;;;;;2.57;2.37;;;21.30;44.60;;;;;;4990653;28;20729;-58
2022/06/15 07:27:17;;;;;;;2.03;1.93;;;21.20;44.60;;;;;;4989987;28;20236;-58
2022/06/15 07:29:46;;;;;;;2.20;2.10;;;21.20;44.50;;;;;;4988260;28;20692;-58
2022/06/15 07:32:14;;;;;;;2.30;2.20;;;21.20;44.60;;;;;;4989508;28;20220;-58
2022/06/15 07:34:40;;;;;;;2.40;2.20;;;21.20;44.60;;;;;;4987381;28;20857;-58
2022/06/15 07:37:07;;;;;;;2.23;2.13;;;21.20;44.50;;;;;;4998653;28;20459;-58
2022/06/15 07:39:33;;;;;;;2.17;2.07;;;21.20;44.60;;;;;;4986493;28;20446;-58
2022/06/15 07:41:59;;;;;;;2.20;2.10;;;21.20;44.60;;;;;;4984468;28;20555;-58
2022/06/15 07:44:26;;;;;;;2.33;2.23;;;21.20;44.60;;;;;;4981095;28;20453;-58
2022/06/15 07:49:57;;;;;;;2.60;2.50;;;21.20;44.70;;;;;;4950561;28;20489;-58
2022/06/15 07:52:30;;;;;;;1.97;1.87;;;21.20;44.70;;;;;;4983764;28;20418;-58
2022/06/15 07:54:56;;;;;;;2.20;2.00;;;21.20;44.70;;;;;;4981720;28;20482;-58
2022/06/15 07:57:22;;;;;;;2.60;2.50;;;21.20;44.70;;;;;;4984142;28;20458;-57
2022/06/15 07:59:48;;;;;;;2.33;2.23;;;21.20;44.80;;;;;;4981540;28;20530;-58
2022/06/15 08:02:14;;;;;;;2.80;2.70;;;21.20;44.80;;;;;;4981821;28;20355;-58
2022/06/15 08:04:39;;;;;;;2.20;2.10;;;21.20;44.80;;;;;;4980099;28;20304;-58
2022/06/15 08:07:07;;;;;;;2.27;2.17;;;21.20;44.80;;;;;;4983431;28;20692;-58
2022/06/15 08:09:33;;;;;;;2.20;2.10;;;21.20;44.80;;;;;;4997702;28;20275;-58
2022/06/15 08:12:19;;;;;;;2.23;2.13;;;21.20;44.80;;;;;;4981225;28;20947;-58
2022/06/15 08:14:48;;;;;;;2.60;2.20;;;21.20;44.80;;;;;;4979197;28;20229;-57
2022/06/15 08:17:27;;;;;;;3.00;2.50;;;21.20;44.80;;;;;;4979393;28;20455;-58
2022/06/15 08:19:58;;;;;;;2.40;2.20;;;21.20;44.80;;;;;;4981414;28;20503;-58
2022/06/15 08:22:24;;;;;;;2.50;2.30;;;21.20;44.90;;;;;;4979582;28;20459;-58
2022/06/15 08:24:50;;;;;;;2.53;2.43;;;21.20;45.00;;;;;;5000138;28;20446;-58
2022/06/15 08:27:19;;;;;;;2.80;2.30;;;21.20;44.90;;;;;;4988871;28;20960;-58
2022/06/15 08:29:46;;;;;;;2.90;2.70;;;21.20;45.00;;;;;;4983434;28;20224;-58
2022/06/15 08:32:12;;;;;;;2.57;2.47;;;21.20;45.00;;;;;;4984742;28;20450;-57
2022/06/15 08:34:39;;;;;;;2.93;2.53;;;21.20;45.00;;;;;;4985194;28;20433;-58
2022/06/15 08:37:07;;;;;;;2.70;2.50;;;21.20;45.10;;;;;;4982248;28;20721;-58
2022/06/15 08:39:33;;;;;;;3.50;2.00;;;21.20;45.00;;;;;;4988192;28;21033;-58
2022/06/15 08:42:19;;;;;;;3.07;2.87;;;21.20;45.00;;;;;;4982834;28;20513;-58
2022/06/15 08:45:09;;;;;;;2.60;2.40;;;21.20;45.00;;;;;;4986521;28;20494;-58
2022/06/15 08:47:53;;;;;;;2.47;2.27;;;21.20;45.00;;;;;;4982911;28;20446;-58
2022/06/15 08:50:35;;;;;;;2.80;2.60;;;21.20;45.10;;;;;;4985039;28;20443;-58
2022/06/15 08:53:17;;;;;;;2.67;2.50;;;21.20;45.20;;;;;;4965880;28;20478;-59
2022/06/15 08:55:56;;;;;;;2.70;2.60;;;21.20;45.10;;;;;;4984752;28;20464;-58
2022/06/15 08:58:35;;;;;;;3.40;3.20;;;21.20;45.20;;;;;;4982402;28;20462;-58
2022/06/15 09:01:13;;;;;;;2.80;2.60;;;21.20;45.20;;;;;;4985428;28;20549;-57
2022/06/15 09:04:07;;;;;;;4.97;3.10;;;21.20;45.30;;;;;;4983610;28;20891;-58
2022/06/15 09:06:51;;;;;;;3.03;2.83;;;21.20;45.30;;;;;;4957926;28;20802;-58
2022/06/15 09:09:37;;;;;;;3.30;3.00;;;21.20;45.30;;;;;;4980742;28;20454;-57
2022/06/15 09:15:20;;;;;;;2.70;2.50;;;21.20;45.30;;;;;;4981706;28;20546;-58
2022/06/15 09:17:46;;;;;;;2.97;2.67;;;21.20;45.30;;;;;;4986563;28;20819;-60
2022/06/15 09:20:37;;;;;;;3.43;2.57;;;21.20;45.40;;;;;;4984051;28;20475;-58
2022/06/15 09:23:27;;;;;;;3.20;2.93;;;21.20;45.30;;;;;;4982377;28;20426;-58
2022/06/15 09:25:58;;;;;;;2.73;2.47;;;21.20;45.50;;;;;;4983410;28;20466;-58
2022/06/15 09:28:45;;;;;;;3.10;2.90;;;21.20;45.50;;;;;;4984359;28;20461;-58
2022/06/15 09:31:20;;;;;;;2.80;2.50;;;21.20;45.50;;;;;;4979868;28;20463;-58
2022/06/15 09:34:08;;;;;;;2.90;2.70;;;21.20;45.60;;;;;;4981954;28;20473;-58
2022/06/15 09:36:42;;;;;;;2.83;2.67;;;21.20;45.60;;;;;;4983676;28;20951;-58
2022/06/15 09:39:08;;;;;;;2.90;2.70;;;21.20;45.70;;;;;;4978936;28;20516;-58
2022/06/15 09:42:04;;;;;;;3.07;2.87;;;21.20;45.70;;;;;;4985386;28;20455;-58
2022/06/15 09:44:50;;;;;;;4.80;2.97;;;21.20;45.70;;;;;;4981675;28;20223;-58
2022/06/15 09:47:42;;;;;;;2.93;2.73;;;21.20;45.70;;;;;;4984322;28;20464;-58
2022/06/15 09:50:21;;;;;;;2.90;2.67;;;21.20;45.70;;;;;;4981593;28;20482;-58
2022/06/15 09:52:54;;;;;;;2.80;2.60;;;21.20;45.80;;;;;;4983212;28;20454;-58
2022/06/15 09:55:34;;;;;;;3.07;2.87;;;21.20;45.70;;;;;;4982477;28;20521;-58
2022/06/15 09:58:01;;;;;;;3.00;2.80;;;21.20;45.70;;;;;;4985625;28;20834;-58
2022/06/15 10:00:28;;;;;;;2.80;2.70;;;21.20;45.70;;;;;;4984145;28;20447;-58
2022/06/15 10:02:59;;;;;;;2.83;2.73;;;21.20;45.70;;;;;;4982013;28;20508;-59
2022/06/15 10:05:32;;;;;;;3.60;3.27;;;21.20;45.80;;;;;;4984181;28;20451;-58
2022/06/15 10:08:03;;;;;;;2.93;2.83;;;21.20;45.70;;;;;;4982840;28;20466;-58
2022/06/15 10:10:39;;;;;;;3.30;2.83;;;21.20;45.70;;;;;;4979581;28;20528;-58
2022/06/15 10:13:26;;;;;;;3.33;3.13;;;21.20;45.70;;;;;;4981838;28;20542;-59
2022/06/15 10:16:00;;;;;;;3.37;3.07;;;21.20;45.70;;;;;;4983518;28;20574;-59
2022/06/15 10:18:43;;;;;;;2.77;2.67;;;21.20;45.70;;;;;;4977422;28;20462;-58
2022/06/15 10:21:14;;;;;;;3.17;2.97;;;21.20;45.70;;;;;;4981401;28;20561;-57
2022/06/15 10:23:52;;;;;;;3.33;3.13;;;21.20;45.70;;;;;;4995163;28;21151;-58
2022/06/15 10:27:05;;;;;;;3.57;3.30;;;21.20;45.70;;;;;;4978905;28;20516;-58
2022/06/15 10:29:31;;;;;;;3.00;2.80;;;21.20;45.70;;;;;;4981357;28;20610;-58
2022/06/15 10:32:17;;;;;;;3.20;3.00;;;21.20;45.70;;;;;;4980247;28;20463;-58
2022/06/15 10:34:45;;;;;;;4.27;2.83;;;21.20;45.70;;;;;;4981810;28;20542;-58
2022/06/15 10:37:30;;;;;;;3.20;3.00;;;21.20;45.70;;;;;;4981789;28;20503;-58
2022/06/15 10:39:59;;;;;;;3.23;3.07;;;21.20;45.70;;;;;;4982835;28;20473;-58
2022/06/15 10:42:39;;;;;;;2.80;2.70;;;21.20;45.70;;;;;;4977932;28;20864;-59
2022/06/15 10:45:20;;;;;;;3.20;3.00;;;21.20;45.70;;;;;;4983346;28;20462;-58
2022/06/15 10:47:54;;;;;;;2.90;2.80;;;21.20;45.70;;;;;;4981144;28;20455;-57
2022/06/15 10:50:46;;;;;;;3.30;3.00;;;21.20;45.70;;;;;;4982029;28;20454;-57
2022/06/15 10:53:26;;;;;;;3.20;3.00;;;21.20;45.70;;;;;;4982220;28;20470;-58
2022/06/15 11:04:32;;;;;;;3.83;3.23;;;21.20;45.70;;;;;;4978102;28;20486;-57
2022/06/15 11:07:04;;;;;;;3.57;3.37;;;21.20;45.70;;;;;;4981537;28;20553;-57
2022/06/15 11:09:41;;;;;;;3.33;3.13;;;21.20;45.70;;;;;;4980902;28;20458;-57
2022/06/15 11:12:32;;;;;;;3.63;3.43;;;21.20;45.70;;;;;;4981557;28;20496;-57
2022/06/15 11:15:21;;;;;;;3.40;3.20;;;21.20;45.70;;;;;;4981120;28;20462;-58
2022/06/15 11:18:03;;;;;;;3.50;3.30;;;21.20;45.70;;;;;;4982624;28;20859;-57
2022/06/15 11:20:53;;;;;;;4.30;3.13;;;21.20;45.70;;;;;;4982517;28;20911;-57
2022/06/15 11:23:41;;;;;;;3.50;3.30;;;21.20;45.70;;;;;;4984798;28;21009;-57
2022/06/15 11:29:48;;;;;;;3.53;3.30;;;21.20;45.70;;;;;;4985680;28;20472;-57
2022/06/15 11:32:42;;;;;;;3.43;3.23;;;21.20;45.70;;;;;;4986113;28;20453;-57
2022/06/15 11:35:14;;;;;;;3.67;3.40;;;21.20;45.70;;;;;;4984088;28;20795;-57
2022/06/15 11:37:49;;;;;;;4.00;3.60;;;21.20;45.70;;;;;;4985948;28;20986;-57
2022/06/15 11:40:28;;;;;;;3.33;3.23;;;21.20;45.70;;;;;;4984551;28;20501;-57
2022/06/15 11:42:53;;;;;;;3.73;3.53;;;21.20;45.70;;;;;;4983589;28;20469;-58
2022/06/15 11:45:39;;;;;;;4.10;3.80;;;21.20;45.70;;;;;;4984554;28;20468;-57
2022/06/15 11:48:04;;;;;;;4.50;4.23;;;21.20;45.70;;;;;;4983185;28;20684;-57
2022/06/15 11:51:14;;;;;;;3.90;3.70;;;21.20;45.70;;;;;;4986344;28;20504;-57
2022/06/15 11:53:58;;;;;;;3.57;3.27;;;21.20;45.70;;;;;;4966497;28;20228;-57
2022/06/15 11:56:31;;;;;;;3.70;3.50;;;21.30;45.80;;;;;;4983161;28;20466;-57
2022/06/15 11:59:14;;;;;;;3.60;3.40;;;21.20;45.70;;;;;;4981109;28;20487;-58
2022/06/15 12:01:56;;;;;;;4.40;4.10;;;21.20;45.70;;;;;;4982336;28;21339;-57
2022/06/15 12:04:36;;;;;;;3.70;3.50;;;21.20;45.70;;;;;;4984687;28;20864;-57
2022/06/15 12:07:23;;;;;;;3.87;3.60;;;21.20;45.70;;;;;;4985656;28;20458;-57
2022/06/15 12:10:19;;;;;;;3.53;3.33;;;21.20;45.70;;;;;;4983696;28;20455;-57
2022/06/15 12:13:23;;;;;;;4.40;4.17;;;21.20;45.70;;;;;;4984922;28;20462;-57
2022/06/15 12:16:04;;;;;;;3.87;3.67;;;21.20;45.70;;;;;;4963710;28;20529;-57
2022/06/15 12:18:48;;;;;;;4.20;4.00;;;21.20;45.70;;;;;;4986908;28;20462;-57
2022/06/15 12:21:14;;;;;;;4.20;3.90;;;21.20;45.70;;;;;;4982488;28;20454;-57
2022/06/15 12:24:01;;;;;;;4.13;3.93;;;21.20;45.80;;;;;;4981757;28;20466;-57
2022/06/15 12:26:36;;;;;;;4.10;3.90;;;21.20;45.70;;;;;;4983514;28;20319;-57
2022/06/15 12:29:07;;;;;;;3.80;3.60;;;21.20;45.70;;;;;;4984580;28;21275;-58
2022/06/15 12:32:10;;;;;;;4.50;4.30;;;21.20;45.70;;;;;;4981090;28;20462;-57
2022/06/15 12:34:58;;;;;;;4.17;3.97;;;21.20;45.70;;;;;;4983452;28;20459;-58
2022/06/15 12:37:29;;;;;;;4.10;3.90;;;21.30;45.80;;;;;;4980382;28;20491;-57
2022/06/15 12:40:25;;;;;;;4.20;4.00;;;21.20;45.70;;;;;;4983757;28;20466;-57
2022/06/15 12:42:56;;;;;;;4.30;4.10;;;21.20;45.70;;;;;;4997546;28;20455;-59
2022/06/15 12:45:29;;;;;;;4.17;3.97;;;21.20;45.70;;;;;;4982899;28;20807;-58
2022/06/15 12:47:58;;;;;;;4.77;4.47;;;21.30;45.80;;;;;;4983421;28;20517;-58
2022/06/15 12:50:31;;;;;;;4.43;4.13;;;21.20;45.70;;;;;;4985591;28;20468;-57
2022/06/15 12:53:20;;;;;;;4.57;4.27;;;21.20;45.70;;;;;;4981451;28;21050;-57
2022/06/15 12:56:05;;;;;;;4.23;4.03;;;21.30;45.80;;;;;;4983104;28;20502;-57
2022/06/15 12:58:54;;;;;;;4.10;3.90;;;21.20;45.80;;;;;;4984779;28;20580;-57
2022/06/15 13:01:24;;;;;;;4.27;4.07;;;21.20;45.70;;;;;;4984489;28;20536;-58
2022/06/15 13:03:52;;;;;;;3.93;3.73;;;21.30;45.80;;;;;;4983622;28;20484;-57
2022/06/15 13:06:29;;;;;;;4.67;4.37;;;21.20;45.70;;;;;;4983721;28;20454;-57
2022/06/15 13:09:14;;;;;;;4.47;4.27;;;21.30;45.80;;;;;;4984860;28;20462;-58
2022/06/15 13:12:04;;;;;;;4.67;4.47;;;21.20;45.70;;;;;;4999695;28;20493;-58
2022/06/15 13:14:54;;;;;;;4.37;4.17;;;21.30;45.80;;;;;;4974394;28;20854;-57
2022/06/15 13:18:05;;;;;;;4.77;4.47;;;21.20;45.70;;;;;;4977926;28;20459;-57
2022/06/15 13:20:31;;;;;;;4.03;3.83;;;21.20;45.80;;;;;;4982667;28;20454;-57
2022/06/15 13:22:57;;;;;;;4.87;4.67;;;21.20;45.70;;;;;;4980965;28;21054;-58
2022/06/15 13:25:23;;;;;;;3.90;3.70;;;21.20;45.70;;;;;;4981057;28;20453;-59
2022/06/15 13:27:54;;;;;;;4.17;3.93;;;21.20;45.70;;;;;;4982854;28;20592;-58
2022/06/15 13:30:30;;;;;;;4.00;3.80;;;21.30;45.80;;;;;;4999422;28;20224;-58
2022/06/15 13:32:59;;;;;;;3.50;3.30;;;21.20;45.70;;;;;;4984514;28;20470;-58
2022/06/15 13:35:33;;;;;;;3.83;3.63;;;21.20;45.70;;;;;;4985120;28;20971;-57
2022/06/15 13:38:22;;;;;;;3.97;3.77;;;21.20;45.80;;;;;;4979519;28;20943;-58